F/V St-alour — FGTB — position and weather

sailwx.info

Track history (hours):
 
Tides and Currents Weather Stations Pressure Air Temp Water Temp Dewpoint Dewpoint Depression Visibility Wind Speed Wind Dir Waves Ship Positions

F/V St-alour

Last reported at 2017-Sep-21 03:33 UTC. Time now 2017-Sep-23 16:40 UTC.
Position N 47°13' W 004°27'.

Length 24 m.

Type: Fishing. MMSI: 227397000.

Date/timePositionNaut miles runAvg speedWind from/ knotsBaromVisibWave heightAir tempDewpointWater temp
2017-Sep-21 03:33N 47°13' W 004°27'1 3.1
2017-Sep-21 03:15N 47°13' W 004°28'1 3.0
2017-Sep-21 02:56N 47°13' W 004°30'2 3.5
2017-Sep-21 02:23N 47°12' W 004°32'1 2.6
2017-Sep-21 01:56N 47°11' W 004°33'1 3.2
2017-Sep-21 01:30N 47°10' W 004°34'2 3.2
2017-Sep-21 01:00N 47°09' W 004°35'2 3.3
2017-Sep-21 00:30N 47°07' W 004°36'2 3.3
2017-Sep-20 23:58N 47°06' W 004°39'2 3.7
2017-Sep-20 23:30N 47°05' W 004°40'1 2.5
2017-Sep-20 23:00N 47°04' W 004°41'2 3.2
2017-Sep-20 22:30N 47°02' W 004°42'2 3.0
2017-Sep-20 21:51N 47°01' W 004°43'4 2.8
2017-Sep-20 20:30N 46°59' W 004°39'2 3.6
2017-Sep-20 19:52N 46°58' W 004°35'11 3.1
2017-Sep-20 16:15N 47°08' W 004°26'6 2.6
2017-Sep-20 14:00N 47°13' W 004°28'2 3.1
2017-Sep-20 13:30N 47°13' W 004°30'2 3.1
2017-Sep-20 12:59N 47°12' W 004°32'2 3.2
2017-Sep-20 12:28N 47°11' W 004°34'2 3.2
2017-Sep-20 11:59N 47°09' W 004°34'2 3.2
2017-Sep-20 11:30N 47°08' W 004°36'2 3.2
2017-Sep-20 10:48N 47°06' W 004°38'1 3.1
2017-Sep-20 10:30N 47°06' W 004°39'2 3.1
2017-Sep-20 10:00N 47°05' W 004°40'2 3.2
2017-Sep-20 09:30N 47°03' W 004°41'2 3.0
2017-Sep-20 08:59N 47°02' W 004°39'5 1.4
2017-Sep-20 05:05N 47°06' W 004°34'0 2.9
2017-Sep-20 04:57N 47°06' W 004°34'1 2.8
2017-Sep-20 04:29N 47°06' W 004°36'2 2.9
2017-Sep-20 03:44N 47°05' W 004°39'1 2.9
2017-Sep-20 03:29N 47°04' W 004°40'1 3.0
2017-Sep-20 03:00N 47°03' W 004°41'2 3.6
2017-Sep-20 02:29N 47°02' W 004°43'2 2.7
2017-Sep-20 01:54N 47°02' W 004°45'54 3.9
2017-Sep-19 11:49N 47°50' W 004°09'  
2017-Sep-16 23:38N 47°50' W 004°10'4 6.6
2017-Sep-16 22:58N 47°46' W 004°10'  
Track history (hours):
 
Tides and Currents Weather Stations Pressure Air Temp Water Temp Dewpoint Dewpoint Depression Visibility Wind Speed Wind Dir Waves Ship Positions

F/V St-alour

Last reported at 2017-Sep-21 03:33 UTC. Time now 2017-Sep-23 16:40 UTC.
Position N 47°13' W 004°27'.

Length 24 m.

Type: Fishing. MMSI: 227397000.

Date/timePositionNaut miles runAvg speedWind from/ knotsBaromVisibWave heightAir tempDewpointWater temp
2017-Sep-21 03:33N 47°13' W 004°27'1 3.1
2017-Sep-21 03:15N 47°13' W 004°28'1 3.0
2017-Sep-21 02:56N 47°13' W 004°30'2 3.5
2017-Sep-21 02:23N 47°12' W 004°32'1 2.6
2017-Sep-21 01:56N 47°11' W 004°33'1 3.2
2017-Sep-21 01:30N 47°10' W 004°34'2 3.2
2017-Sep-21 01:00N 47°09' W 004°35'2 3.3
2017-Sep-21 00:30N 47°07' W 004°36'2 3.3
2017-Sep-20 23:58N 47°06' W 004°39'2 3.7
2017-Sep-20 23:30N 47°05' W 004°40'1 2.5
2017-Sep-20 23:00N 47°04' W 004°41'2 3.2
2017-Sep-20 22:30N 47°02' W 004°42'2 3.0
2017-Sep-20 21:51N 47°01' W 004°43'4 2.8
2017-Sep-20 20:30N 46°59' W 004°39'2 3.6
2017-Sep-20 19:52N 46°58' W 004°35'11 3.1
2017-Sep-20 16:15N 47°08' W 004°26'6 2.6
2017-Sep-20 14:00N 47°13' W 004°28'2 3.1
2017-Sep-20 13:30N 47°13' W 004°30'2 3.1
2017-Sep-20 12:59N 47°12' W 004°32'2 3.2
2017-Sep-20 12:28N 47°11' W 004°34'2 3.2
2017-Sep-20 11:59N 47°09' W 004°34'2 3.2
2017-Sep-20 11:30N 47°08' W 004°36'2 3.2
2017-Sep-20 10:48N 47°06' W 004°38'1 3.1
2017-Sep-20 10:30N 47°06' W 004°39'2 3.1
2017-Sep-20 10:00N 47°05' W 004°40'2 3.2
2017-Sep-20 09:30N 47°03' W 004°41'2 3.0
2017-Sep-20 08:59N 47°02' W 004°39'5 1.4
2017-Sep-20 05:05N 47°06' W 004°34'0 2.9
2017-Sep-20 04:57N 47°06' W 004°34'1 2.8
2017-Sep-20 04:29N 47°06' W 004°36'2 2.9
2017-Sep-20 03:44N 47°05' W 004°39'1 2.9
2017-Sep-20 03:29N 47°04' W 004°40'1 3.0
2017-Sep-20 03:00N 47°03' W 004°41'2 3.6
2017-Sep-20 02:29N 47°02' W 004°43'2 2.7
2017-Sep-20 01:54N 47°02' W 004°45'54 3.9
2017-Sep-19 11:49N 47°50' W 004°09'  
2017-Sep-16 23:38N 47°50' W 004°10'4 6.6
2017-Sep-16 22:58N 47°46' W 004°10'  

Dump ship's entire track history